Silute, Lithuania

12:09 AM EET on January 28, 2015 (GMT +0200)
Khrabrovo | Change Station
CLOSE
Current Station
Airport
Location: Kaliningrad,
Elevation: 39 ft
Nearby Weather Stations

Elev 39 ft 54.89 °N, 20.59 °E | Updated 39 minutes ago

Overcast
Overcast
28 °F
Feels Like 28 °F
N
2
Wind Variable Wind from SW

Today
High -- | Low -- °F
--% Chance of Precip.
Yesterday
High -- | Low -- °F
Precip. -- in
8:34 AM 5:00 PM
First Quarter, 58% visible
Pressure 29.83 in
Visibility 1.7 miles
Clouds Scattered Clouds 2100 ft
Overcast 10000 ft
Dew Point 27 °F
Humidity 93%
Rainfall 0.00 in
Snow Depth Not available.
UV 0 out of 12
Pollen Not available.
Air Quality Not available.
Flu Activity Not available.
METAR UMKK 272130Z 23001MPS 2700 BR SCT021 OVC100 M02/M03 Q1010 R24/19//45 NOSIG RMK QFE756/1008

More Conditions Fewer Conditions

Pressure 29.83 in
Visibility 1.7 miles
Clouds Scattered Clouds 2100 ft
Overcast 10000 ft
Dew Point 27 °F
Humidity 93%
Rainfall 0.00 in
Snow Depth Not available.
UV 0 out of 12
Pollen Not available.
Air Quality Not available.
Flu Activity Not available.
METAR UMKK 272130Z 23001MPS 2700 BR SCT021 OVC100 M02/M03 Q1010 R24/19//45 NOSIG RMK QFE756/1008

More Conditions Fewer Conditions

10-Day Weather Forecast

Almanac

Astronomy

Jan. 28, 2015 Rise Set
Actual Time
Civil Twilight
Nautical Twilight
Astronomical Twilight
Moon
Length of Visible Light
Length of Day
Tomorrow will be .
, % of the Moon is Illuminated

Today's Extremes

Country Highs Country Lows

Community

WunderPhotos

Upload Photos

1,790,921 photos uploaded!

WunderBlogs® & News

Nearby

Air Quality

  Air Quality AQ Index Pollutant
Not available.

Snow Depth

Station Depth Elevation

Earthquake Activity

City Distance Mag. Time & Date
Minimum magnitude displayed is 2.5.

Coastal Water Temperatures

Place Temperature

Nearby Weather Stations